sensor_id;sensor_type;location;lat;lon;timestamp;P1;durP1;ratioP1;P2;durP2;ratioP2
17826;SDS011;9038;48.208;16.308;2022-11-14T00:00:52;69.03;;;36.33;;
17826;SDS011;9038;48.208;16.308;2022-11-14T00:02:54;70.77;;;36.60;;
17826;SDS011;9038;48.208;16.308;2022-11-14T00:04:59;70.87;;;37.30;;
17826;SDS011;9038;48.208;16.308;2022-11-14T00:07:01;95.23;;;38.17;;
17826;SDS011;9038;48.208;16.308;2022-11-14T00:09:03;85.33;;;39.30;;
17826;SDS011;9038;48.208;16.308;2022-11-14T00:11:05;70.70;;;36.77;;
17826;SDS011;9038;48.208;16.308;2022-11-14T00:13:08;69.53;;;37.43;;
17826;SDS011;9038;48.208;16.308;2022-11-14T00:15:12;73.13;;;36.67;;
17826;SDS011;9038;48.208;16.308;2022-11-14T00:17:15;66.53;;;35.40;;
17826;SDS011;9038;48.208;16.308;2022-11-14T00:19:16;63.47;;;33.73;;
17826;SDS011;9038;48.208;16.308;2022-11-14T00:21:18;61.27;;;35.77;;
17826;SDS011;9038;48.208;16.308;2022-11-14T00:23:20;66.10;;;36.27;;
17826;SDS011;9038;48.208;16.308;2022-11-14T00:25:22;66.23;;;36.23;;
17826;SDS011;9038;48.208;16.308;2022-11-14T00:27:24;64.67;;;36.87;;
17826;SDS011;9038;48.208;16.308;2022-11-14T00:29:26;63.53;;;35.90;;
17826;SDS011;9038;48.208;16.308;2022-11-14T00:31:30;63.50;;;36.17;;
17826;SDS011;9038;48.208;16.308;2022-11-14T00:33:31;61.27;;;35.87;;
17826;SDS011;9038;48.208;16.308;2022-11-14T00:35:33;61.20;;;35.10;;
17826;SDS011;9038;48.208;16.308;2022-11-14T00:37:35;59.80;;;34.90;;
17826;SDS011;9038;48.208;16.308;2022-11-14T00:39:37;56.83;;;32.87;;
17826;SDS011;9038;48.208;16.308;2022-11-14T00:41:39;54.17;;;33.17;;
17826;SDS011;9038;48.208;16.308;2022-11-14T00:43:42;56.50;;;33.00;;
17826;SDS011;9038;48.208;16.308;2022-11-14T00:45:44;52.47;;;31.87;;
17826;SDS011;9038;48.208;16.308;2022-11-14T00:47:47;65.07;;;34.93;;
17826;SDS011;9038;48.208;16.308;2022-11-14T00:49:49;62.20;;;35.43;;
17826;SDS011;9038;48.208;16.308;2022-11-14T00:51:51;56.03;;;32.13;;
17826;SDS011;9038;48.208;16.308;2022-11-14T00:53:53;54.00;;;32.73;;
17826;SDS011;9038;48.208;16.308;2022-11-14T00:55:55;59.00;;;34.30;;
17826;SDS011;9038;48.208;16.308;2022-11-14T00:57:57;50.87;;;32.33;;
17826;SDS011;9038;48.208;16.308;2022-11-14T00:59:59;53.53;;;32.87;;
17826;SDS011;9038;48.208;16.308;2022-11-14T01:02:00;49.20;;;31.83;;
17826;SDS011;9038;48.208;16.308;2022-11-14T01:04:04;50.50;;;32.43;;
17826;SDS011;9038;48.208;16.308;2022-11-14T01:06:07;46.60;;;30.90;;
17826;SDS011;9038;48.208;16.308;2022-11-14T01:08:13;51.77;;;31.80;;
17826;SDS011;9038;48.208;16.308;2022-11-14T01:10:16;49.73;;;31.33;;
17826;SDS011;9038;48.208;16.308;2022-11-14T01:12:18;49.27;;;30.93;;
17826;SDS011;9038;48.208;16.308;2022-11-14T01:14:20;50.73;;;32.87;;
17826;SDS011;9038;48.208;16.308;2022-11-14T01:16:22;48.60;;;31.57;;
17826;SDS011;9038;48.208;16.308;2022-11-14T01:18:24;46.97;;;31.13;;
17826;SDS011;9038;48.208;16.308;2022-11-14T01:20:27;47.60;;;31.87;;
17826;SDS011;9038;48.208;16.308;2022-11-14T01:22:29;49.30;;;32.07;;
17826;SDS011;9038;48.208;16.308;2022-11-14T01:24:31;48.53;;;32.30;;
17826;SDS011;9038;48.208;16.308;2022-11-14T01:26:33;49.10;;;31.53;;
17826;SDS011;9038;48.208;16.308;2022-11-14T01:28:35;50.10;;;31.17;;
17826;SDS011;9038;48.208;16.308;2022-11-14T01:30:38;49.23;;;31.47;;
17826;SDS011;9038;48.208;16.308;2022-11-14T01:32:40;52.80;;;32.20;;
17826;SDS011;9038;48.208;16.308;2022-11-14T01:34:42;51.63;;;32.57;;
17826;SDS011;9038;48.208;16.308;2022-11-14T01:36:45;53.77;;;34.50;;
17826;SDS011;9038;48.208;16.308;2022-11-14T01:38:50;53.73;;;33.50;;
17826;SDS011;9038;48.208;16.308;2022-11-14T01:40:52;51.93;;;32.90;;
17826;SDS011;9038;48.208;16.308;2022-11-14T01:45:49;48.87;;;32.37;;
17826;SDS011;9038;48.208;16.308;2022-11-14T01:47:53;52.53;;;33.97;;
17826;SDS011;9038;48.208;16.308;2022-11-14T01:49:56;50.43;;;33.17;;
17826;SDS011;9038;48.208;16.308;2022-11-14T01:52:02;54.43;;;34.03;;
17826;SDS011;9038;48.208;16.308;2022-11-14T01:54:07;49.80;;;31.60;;
17826;SDS011;9038;48.208;16.308;2022-11-14T01:56:14;50.40;;;33.37;;
17826;SDS011;9038;48.208;16.308;2022-11-14T01:58:19;54.37;;;34.03;;
17826;SDS011;9038;48.208;16.308;2022-11-14T02:00:21;52.30;;;33.33;;
17826;SDS011;9038;48.208;16.308;2022-11-14T02:02:24;50.30;;;32.53;;
17826;SDS011;9038;48.208;16.308;2022-11-14T02:04:27;52.53;;;33.57;;
17826;SDS011;9038;48.208;16.308;2022-11-14T02:06:31;48.13;;;32.40;;
17826;SDS011;9038;48.208;16.308;2022-11-14T02:08:34;53.23;;;33.90;;
17826;SDS011;9038;48.208;16.308;2022-11-14T02:10:37;54.73;;;34.20;;
17826;SDS011;9038;48.208;16.308;2022-11-14T02:12:39;46.80;;;30.60;;
17826;SDS011;9038;48.208;16.308;2022-11-14T02:14:42;54.93;;;33.87;;
17826;SDS011;9038;48.208;16.308;2022-11-14T02:16:45;53.23;;;34.30;;
17826;SDS011;9038;48.208;16.308;2022-11-14T02:18:47;53.87;;;33.77;;
17826;SDS011;9038;48.208;16.308;2022-11-14T02:20:50;53.73;;;33.27;;
17826;SDS011;9038;48.208;16.308;2022-11-14T02:22:52;50.47;;;32.20;;
17826;SDS011;9038;48.208;16.308;2022-11-14T02:24:55;51.73;;;33.13;;
17826;SDS011;9038;48.208;16.308;2022-11-14T02:26:56;51.53;;;33.57;;
17826;SDS011;9038;48.208;16.308;2022-11-14T02:28:59;52.90;;;32.67;;
17826;SDS011;9038;48.208;16.308;2022-11-14T02:31:01;50.30;;;32.57;;
17826;SDS011;9038;48.208;16.308;2022-11-14T02:33:02;54.43;;;33.87;;
17826;SDS011;9038;48.208;16.308;2022-11-14T02:35:04;57.93;;;33.80;;
17826;SDS011;9038;48.208;16.308;2022-11-14T02:37:08;55.67;;;33.00;;
17826;SDS011;9038;48.208;16.308;2022-11-14T02:39:10;48.37;;;32.63;;
17826;SDS011;9038;48.208;16.308;2022-11-14T02:41:12;53.20;;;32.83;;
17826;SDS011;9038;48.208;16.308;2022-11-14T02:43:14;54.03;;;33.87;;
17826;SDS011;9038;48.208;16.308;2022-11-14T02:45:16;53.70;;;32.63;;
17826;SDS011;9038;48.208;16.308;2022-11-14T02:47:19;50.10;;;31.80;;
17826;SDS011;9038;48.208;16.308;2022-11-14T02:49:23;48.50;;;31.93;;
17826;SDS011;9038;48.208;16.308;2022-11-14T02:51:27;53.43;;;32.80;;
17826;SDS011;9038;48.208;16.308;2022-11-14T02:53:33;48.50;;;31.73;;
17826;SDS011;9038;48.208;16.308;2022-11-14T02:55:35;48.70;;;31.50;;
17826;SDS011;9038;48.208;16.308;2022-11-14T02:57:37;51.23;;;31.50;;
17826;SDS011;9038;48.208;16.308;2022-11-14T02:59:38;50.10;;;32.30;;
17826;SDS011;9038;48.208;16.308;2022-11-14T03:01:40;57.37;;;34.10;;
17826;SDS011;9038;48.208;16.308;2022-11-14T03:03:42;53.13;;;32.93;;
17826;SDS011;9038;48.208;16.308;2022-11-14T03:05:44;50.13;;;32.80;;
17826;SDS011;9038;48.208;16.308;2022-11-14T03:07:46;55.27;;;33.70;;
17826;SDS011;9038;48.208;16.308;2022-11-14T03:09:49;50.47;;;32.87;;
17826;SDS011;9038;48.208;16.308;2022-11-14T03:11:51;54.40;;;34.27;;
17826;SDS011;9038;48.208;16.308;2022-11-14T03:13:53;56.53;;;33.30;;
17826;SDS011;9038;48.208;16.308;2022-11-14T03:15:55;55.73;;;34.23;;
17826;SDS011;9038;48.208;16.308;2022-11-14T03:17:57;56.23;;;33.47;;
17826;SDS011;9038;48.208;16.308;2022-11-14T03:19:59;51.70;;;32.57;;
17826;SDS011;9038;48.208;16.308;2022-11-14T03:22:01;61.63;;;34.80;;
17826;SDS011;9038;48.208;16.308;2022-11-14T03:24:03;54.67;;;33.20;;
17826;SDS011;9038;48.208;16.308;2022-11-14T03:26:08;53.63;;;33.00;;
17826;SDS011;9038;48.208;16.308;2022-11-14T03:28:11;54.03;;;33.87;;
17826;SDS011;9038;48.208;16.308;2022-11-14T03:30:13;51.53;;;33.10;;
17826;SDS011;9038;48.208;16.308;2022-11-14T03:32:15;48.83;;;32.27;;
17826;SDS011;9038;48.208;16.308;2022-11-14T03:34:17;53.53;;;32.00;;
17826;SDS011;9038;48.208;16.308;2022-11-14T03:36:19;49.87;;;32.47;;
17826;SDS011;9038;48.208;16.308;2022-11-14T03:38:21;50.67;;;32.90;;
17826;SDS011;9038;48.208;16.308;2022-11-14T03:40:23;53.27;;;33.17;;
17826;SDS011;9038;48.208;16.308;2022-11-14T03:42:26;54.47;;;34.97;;
17826;SDS011;9038;48.208;16.308;2022-11-14T03:44:28;52.47;;;33.37;;
17826;SDS011;9038;48.208;16.308;2022-11-14T03:46:30;53.63;;;33.53;;
17826;SDS011;9038;48.208;16.308;2022-11-14T03:48:31;53.10;;;32.83;;
17826;SDS011;9038;48.208;16.308;2022-11-14T03:50:33;50.87;;;32.57;;
17826;SDS011;9038;48.208;16.308;2022-11-14T03:52:36;55.90;;;33.87;;
17826;SDS011;9038;48.208;16.308;2022-11-14T03:54:37;54.17;;;33.40;;
17826;SDS011;9038;48.208;16.308;2022-11-14T03:56:39;53.13;;;31.97;;
17826;SDS011;9038;48.208;16.308;2022-11-14T03:58:43;54.93;;;32.77;;
17826;SDS011;9038;48.208;16.308;2022-11-14T04:00:45;54.00;;;33.40;;
17826;SDS011;9038;48.208;16.308;2022-11-14T04:02:46;52.87;;;32.63;;
17826;SDS011;9038;48.208;16.308;2022-11-14T04:04:48;48.83;;;31.93;;
17826;SDS011;9038;48.208;16.308;2022-11-14T04:06:50;53.73;;;32.93;;
17826;SDS011;9038;48.208;16.308;2022-11-14T04:08:52;58.40;;;32.80;;
17826;SDS011;9038;48.208;16.308;2022-11-14T04:10:55;54.13;;;32.37;;
17826;SDS011;9038;48.208;16.308;2022-11-14T04:12:57;52.57;;;32.17;;
17826;SDS011;9038;48.208;16.308;2022-11-14T04:15:01;55.07;;;32.87;;
17826;SDS011;9038;48.208;16.308;2022-11-14T04:17:02;50.90;;;32.50;;
17826;SDS011;9038;48.208;16.308;2022-11-14T04:19:04;51.17;;;32.47;;
17826;SDS011;9038;48.208;16.308;2022-11-14T04:21:06;48.27;;;30.63;;
17826;SDS011;9038;48.208;16.308;2022-11-14T04:23:08;52.27;;;31.27;;
17826;SDS011;9038;48.208;16.308;2022-11-14T04:25:10;51.00;;;34.20;;
17826;SDS011;9038;48.208;16.308;2022-11-14T04:27:12;51.53;;;33.10;;
17826;SDS011;9038;48.208;16.308;2022-11-14T04:29:14;48.50;;;31.10;;
17826;SDS011;9038;48.208;16.308;2022-11-14T04:31:17;52.27;;;32.70;;
17826;SDS011;9038;48.208;16.308;2022-11-14T04:33:19;52.27;;;33.27;;
17826;SDS011;9038;48.208;16.308;2022-11-14T04:35:21;44.67;;;30.93;;
17826;SDS011;9038;48.208;16.308;2022-11-14T04:37:23;51.90;;;32.50;;
17826;SDS011;9038;48.208;16.308;2022-11-14T04:39:25;52.10;;;33.57;;
17826;SDS011;9038;48.208;16.308;2022-11-14T04:41:27;57.50;;;34.87;;
17826;SDS011;9038;48.208;16.308;2022-11-14T04:43:29;53.20;;;33.17;;
17826;SDS011;9038;48.208;16.308;2022-11-14T04:45:31;53.97;;;32.63;;
17826;SDS011;9038;48.208;16.308;2022-11-14T04:47:34;53.53;;;32.43;;
17826;SDS011;9038;48.208;16.308;2022-11-14T04:49:36;56.40;;;32.83;;
17826;SDS011;9038;48.208;16.308;2022-11-14T04:51:38;53.97;;;33.33;;
17826;SDS011;9038;48.208;16.308;2022-11-14T04:53:40;57.87;;;33.77;;
17826;SDS011;9038;48.208;16.308;2022-11-14T04:55:42;51.03;;;32.20;;
17826;SDS011;9038;48.208;16.308;2022-11-14T04:57:45;51.00;;;32.03;;
17826;SDS011;9038;48.208;16.308;2022-11-14T04:59:47;61.33;;;35.83;;
17826;SDS011;9038;48.208;16.308;2022-11-14T05:01:48;57.27;;;33.17;;
17826;SDS011;9038;48.208;16.308;2022-11-14T05:03:52;54.07;;;33.23;;
17826;SDS011;9038;48.208;16.308;2022-11-14T05:05:54;57.67;;;35.07;;
17826;SDS011;9038;48.208;16.308;2022-11-14T05:08:00;50.40;;;31.67;;
17826;SDS011;9038;48.208;16.308;2022-11-14T05:10:02;50.27;;;32.37;;
17826;SDS011;9038;48.208;16.308;2022-11-14T05:12:05;52.57;;;32.63;;
17826;SDS011;9038;48.208;16.308;2022-11-14T05:14:07;57.63;;;33.27;;
17826;SDS011;9038;48.208;16.308;2022-11-14T05:16:09;66.83;;;34.17;;
17826;SDS011;9038;48.208;16.308;2022-11-14T05:18:11;61.70;;;35.53;;
17826;SDS011;9038;48.208;16.308;2022-11-14T05:20:14;63.63;;;34.53;;
17826;SDS011;9038;48.208;16.308;2022-11-14T05:22:17;56.83;;;34.70;;
17826;SDS011;9038;48.208;16.308;2022-11-14T05:24:19;71.67;;;35.07;;
17826;SDS011;9038;48.208;16.308;2022-11-14T05:26:21;64.13;;;35.43;;
17826;SDS011;9038;48.208;16.308;2022-11-14T05:28:22;88.57;;;37.10;;
17826;SDS011;9038;48.208;16.308;2022-11-14T05:30:24;65.60;;;35.97;;
17826;SDS011;9038;48.208;16.308;2022-11-14T05:32:26;75.20;;;37.53;;
17826;SDS011;9038;48.208;16.308;2022-11-14T05:34:28;68.33;;;36.90;;
17826;SDS011;9038;48.208;16.308;2022-11-14T05:36:32;70.00;;;38.27;;
17826;SDS011;9038;48.208;16.308;2022-11-14T05:38:33;91.20;;;37.17;;
17826;SDS011;9038;48.208;16.308;2022-11-14T05:40:36;70.63;;;36.77;;
17826;SDS011;9038;48.208;16.308;2022-11-14T05:42:37;62.13;;;35.53;;
17826;SDS011;9038;48.208;16.308;2022-11-14T05:44:39;61.93;;;36.33;;
17826;SDS011;9038;48.208;16.308;2022-11-14T05:46:41;81.77;;;38.03;;
17826;SDS011;9038;48.208;16.308;2022-11-14T05:48:43;126.53;;;41.47;;
17826;SDS011;9038;48.208;16.308;2022-11-14T05:50:45;109.57;;;38.93;;
17826;SDS011;9038;48.208;16.308;2022-11-14T05:52:48;155.40;;;41.20;;
17826;SDS011;9038;48.208;16.308;2022-11-14T05:54:50;94.27;;;39.47;;
17826;SDS011;9038;48.208;16.308;2022-11-14T05:56:52;83.50;;;38.80;;
17826;SDS011;9038;48.208;16.308;2022-11-14T05:58:54;79.73;;;37.63;;
17826;SDS011;9038;48.208;16.308;2022-11-14T06:01:00;101.17;;;40.10;;
17826;SDS011;9038;48.208;16.308;2022-11-14T06:03:03;95.57;;;40.47;;
17826;SDS011;9038;48.208;16.308;2022-11-14T06:05:05;79.20;;;38.70;;
17826;SDS011;9038;48.208;16.308;2022-11-14T06:07:08;85.80;;;39.53;;
17826;SDS011;9038;48.208;16.308;2022-11-14T06:09:11;93.67;;;39.87;;
17826;SDS011;9038;48.208;16.308;2022-11-14T06:11:14;71.03;;;38.13;;
17826;SDS011;9038;48.208;16.308;2022-11-14T06:13:17;95.70;;;38.97;;
17826;SDS011;9038;48.208;16.308;2022-11-14T06:15:19;126.47;;;39.83;;
17826;SDS011;9038;48.208;16.308;2022-11-14T06:17:21;83.63;;;39.30;;
17826;SDS011;9038;48.208;16.308;2022-11-14T06:19:23;94.22;;;41.20;;
17826;SDS011;9038;48.208;16.308;2022-11-14T06:21:25;102.30;;;41.87;;
17826;SDS011;9038;48.208;16.308;2022-11-14T06:23:27;86.27;;;40.93;;
17826;SDS011;9038;48.208;16.308;2022-11-14T06:25:31;96.30;;;40.97;;
17826;SDS011;9038;48.208;16.308;2022-11-14T06:27:32;104.40;;;40.63;;
17826;SDS011;9038;48.208;16.308;2022-11-14T06:29:35;145.30;;;42.50;;
17826;SDS011;9038;48.208;16.308;2022-11-14T06:31:37;83.67;;;40.57;;
17826;SDS011;9038;48.208;16.308;2022-11-14T06:33:38;92.23;;;40.43;;
17826;SDS011;9038;48.208;16.308;2022-11-14T06:35:40;78.70;;;38.90;;
17826;SDS011;9038;48.208;16.308;2022-11-14T06:37:42;88.13;;;39.27;;
17826;SDS011;9038;48.208;16.308;2022-11-14T06:39:44;65.57;;;36.50;;
17826;SDS011;9038;48.208;16.308;2022-11-14T06:41:48;72.83;;;38.27;;
17826;SDS011;9038;48.208;16.308;2022-11-14T06:43:50;73.20;;;38.60;;
17826;SDS011;9038;48.208;16.308;2022-11-14T06:45:55;84.20;;;39.60;;
17826;SDS011;9038;48.208;16.308;2022-11-14T06:47:57;111.87;;;44.00;;
17826;SDS011;9038;48.208;16.308;2022-11-14T06:49:59;79.87;;;40.23;;
17826;SDS011;9038;48.208;16.308;2022-11-14T06:52:01;73.57;;;38.93;;
17826;SDS011;9038;48.208;16.308;2022-11-14T06:54:03;80.47;;;40.23;;
17826;SDS011;9038;48.208;16.308;2022-11-14T06:56:06;83.80;;;39.67;;
17826;SDS011;9038;48.208;16.308;2022-11-14T06:58:10;75.27;;;38.73;;
17826;SDS011;9038;48.208;16.308;2022-11-14T07:00:12;75.73;;;38.17;;
17826;SDS011;9038;48.208;16.308;2022-11-14T07:02:15;80.10;;;39.50;;
17826;SDS011;9038;48.208;16.308;2022-11-14T07:04:19;77.93;;;39.97;;
17826;SDS011;9038;48.208;16.308;2022-11-14T07:06:22;68.43;;;38.27;;
17826;SDS011;9038;48.208;16.308;2022-11-14T07:08:25;73.57;;;39.07;;
17826;SDS011;9038;48.208;16.308;2022-11-14T07:10:27;75.70;;;38.70;;
17826;SDS011;9038;48.208;16.308;2022-11-14T07:12:29;65.07;;;37.10;;
17826;SDS011;9038;48.208;16.308;2022-11-14T07:14:33;66.87;;;37.00;;
17826;SDS011;9038;48.208;16.308;2022-11-14T07:16:35;67.10;;;38.10;;
17826;SDS011;9038;48.208;16.308;2022-11-14T07:18:38;61.30;;;35.70;;
17826;SDS011;9038;48.208;16.308;2022-11-14T07:20:40;68.50;;;37.10;;
17826;SDS011;9038;48.208;16.308;2022-11-14T07:22:43;69.17;;;36.67;;
17826;SDS011;9038;48.208;16.308;2022-11-14T07:24:46;67.47;;;37.90;;
17826;SDS011;9038;48.208;16.308;2022-11-14T07:26:48;78.10;;;38.77;;
17826;SDS011;9038;48.208;16.308;2022-11-14T07:28:50;70.43;;;38.73;;
17826;SDS011;9038;48.208;16.308;2022-11-14T07:30:53;72.20;;;37.10;;
17826;SDS011;9038;48.208;16.308;2022-11-14T07:32:55;85.07;;;37.93;;
17826;SDS011;9038;48.208;16.308;2022-11-14T07:34:57;71.80;;;38.57;;
17826;SDS011;9038;48.208;16.308;2022-11-14T07:36:59;74.47;;;37.00;;
17826;SDS011;9038;48.208;16.308;2022-11-14T07:39:01;89.93;;;37.93;;
17826;SDS011;9038;48.208;16.308;2022-11-14T07:41:04;86.10;;;35.70;;
17826;SDS011;9038;48.208;16.308;2022-11-14T07:43:07;70.57;;;38.07;;
17826;SDS011;9038;48.208;16.308;2022-11-14T07:45:09;60.73;;;36.17;;
17826;SDS011;9038;48.208;16.308;2022-11-14T07:47:13;65.53;;;36.97;;
17826;SDS011;9038;48.208;16.308;2022-11-14T07:49:15;66.27;;;37.20;;
17826;SDS011;9038;48.208;16.308;2022-11-14T07:51:17;62.83;;;37.27;;
17826;SDS011;9038;48.208;16.308;2022-11-14T07:53:20;60.53;;;35.43;;
17826;SDS011;9038;48.208;16.308;2022-11-14T07:55:23;55.20;;;34.60;;
17826;SDS011;9038;48.208;16.308;2022-11-14T07:57:25;55.77;;;35.10;;
17826;SDS011;9038;48.208;16.308;2022-11-14T07:59:27;57.00;;;34.00;;
17826;SDS011;9038;48.208;16.308;2022-11-14T08:01:29;55.07;;;34.33;;
17826;SDS011;9038;48.208;16.308;2022-11-14T08:03:33;57.13;;;34.00;;
17826;SDS011;9038;48.208;16.308;2022-11-14T08:05:35;59.97;;;35.63;;
17826;SDS011;9038;48.208;16.308;2022-11-14T08:07:37;57.20;;;34.63;;
17826;SDS011;9038;48.208;16.308;2022-11-14T08:09:42;62.37;;;36.30;;
17826;SDS011;9038;48.208;16.308;2022-11-14T08:11:47;55.90;;;34.00;;
17826;SDS011;9038;48.208;16.308;2022-11-14T08:13:49;55.87;;;34.10;;
17826;SDS011;9038;48.208;16.308;2022-11-14T08:15:51;49.67;;;32.63;;
17826;SDS011;9038;48.208;16.308;2022-11-14T08:17:55;59.47;;;34.00;;
17826;SDS011;9038;48.208;16.308;2022-11-14T08:19:59;56.77;;;34.20;;
17826;SDS011;9038;48.208;16.308;2022-11-14T08:22:01;53.57;;;33.57;;
17826;SDS011;9038;48.208;16.308;2022-11-14T08:24:03;51.90;;;33.27;;
17826;SDS011;9038;48.208;16.308;2022-11-14T08:26:05;50.43;;;33.07;;
17826;SDS011;9038;48.208;16.308;2022-11-14T08:28:07;52.07;;;31.93;;
17826;SDS011;9038;48.208;16.308;2022-11-14T08:30:10;53.47;;;34.73;;
17826;SDS011;9038;48.208;16.308;2022-11-14T08:32:12;52.17;;;33.20;;
17826;SDS011;9038;48.208;16.308;2022-11-14T08:34:15;51.90;;;32.77;;
17826;SDS011;9038;48.208;16.308;2022-11-14T08:36:18;52.97;;;33.23;;
17826;SDS011;9038;48.208;16.308;2022-11-14T08:38:20;58.33;;;33.47;;
17826;SDS011;9038;48.208;16.308;2022-11-14T08:40:22;55.93;;;34.03;;
17826;SDS011;9038;48.208;16.308;2022-11-14T08:42:24;67.63;;;35.00;;
17826;SDS011;9038;48.208;16.308;2022-11-14T08:44:26;56.07;;;33.43;;
17826;SDS011;9038;48.208;16.308;2022-11-14T08:46:28;52.70;;;32.97;;
17826;SDS011;9038;48.208;16.308;2022-11-14T08:48:30;49.73;;;32.57;;
17826;SDS011;9038;48.208;16.308;2022-11-14T08:50:32;56.17;;;34.03;;
17826;SDS011;9038;48.208;16.308;2022-11-14T08:52:35;50.40;;;31.33;;
17826;SDS011;9038;48.208;16.308;2022-11-14T08:54:37;48.93;;;31.50;;
17826;SDS011;9038;48.208;16.308;2022-11-14T08:56:39;48.00;;;31.80;;
17826;SDS011;9038;48.208;16.308;2022-11-14T08:58:41;48.30;;;31.10;;
17826;SDS011;9038;48.208;16.308;2022-11-14T09:00:43;49.57;;;32.27;;
17826;SDS011;9038;48.208;16.308;2022-11-14T09:02:45;47.80;;;31.77;;
17826;SDS011;9038;48.208;16.308;2022-11-14T09:04:47;46.03;;;31.17;;
17826;SDS011;9038;48.208;16.308;2022-11-14T09:06:49;49.60;;;31.53;;
17826;SDS011;9038;48.208;16.308;2022-11-14T09:08:53;46.07;;;31.20;;
17826;SDS011;9038;48.208;16.308;2022-11-14T09:10:56;47.80;;;31.50;;
17826;SDS011;9038;48.208;16.308;2022-11-14T09:13:01;45.57;;;30.30;;
17826;SDS011;9038;48.208;16.308;2022-11-14T09:15:03;49.20;;;30.50;;
17826;SDS011;9038;48.208;16.308;2022-11-14T09:17:05;40.47;;;28.37;;
17826;SDS011;9038;48.208;16.308;2022-11-14T09:19:07;43.77;;;28.80;;
17826;SDS011;9038;48.208;16.308;2022-11-14T09:21:09;38.53;;;27.87;;
17826;SDS011;9038;48.208;16.308;2022-11-14T09:23:12;40.17;;;28.90;;
17826;SDS011;9038;48.208;16.308;2022-11-14T09:25:15;40.30;;;28.43;;
17826;SDS011;9038;48.208;16.308;2022-11-14T09:27:17;38.43;;;27.60;;
17826;SDS011;9038;48.208;16.308;2022-11-14T09:29:19;42.53;;;29.07;;
17826;SDS011;9038;48.208;16.308;2022-11-14T09:31:21;35.80;;;27.40;;
17826;SDS011;9038;48.208;16.308;2022-11-14T09:33:23;35.70;;;27.27;;
17826;SDS011;9038;48.208;16.308;2022-11-14T09:35:25;34.97;;;25.67;;
17826;SDS011;9038;48.208;16.308;2022-11-14T09:37:27;33.07;;;25.07;;
17826;SDS011;9038;48.208;16.308;2022-11-14T09:39:29;34.60;;;25.60;;
17826;SDS011;9038;48.208;16.308;2022-11-14T09:41:36;36.13;;;26.70;;
17826;SDS011;9038;48.208;16.308;2022-11-14T09:43:53;34.37;;;25.87;;
17826;SDS011;9038;48.208;16.308;2022-11-14T09:46:19;36.00;;;25.73;;
17826;SDS011;9038;48.208;16.308;2022-11-14T09:48:25;33.70;;;25.70;;
17826;SDS011;9038;48.208;16.308;2022-11-14T09:50:31;28.83;;;23.53;;
17826;SDS011;9038;48.208;16.308;2022-11-14T09:52:35;30.70;;;22.43;;
17826;SDS011;9038;48.208;16.308;2022-11-14T09:54:41;27.33;;;22.00;;
17826;SDS011;9038;48.208;16.308;2022-11-14T09:56:50;30.57;;;22.70;;
17826;SDS011;9038;48.208;16.308;2022-11-14T09:58:52;30.60;;;22.60;;
17826;SDS011;9038;48.208;16.308;2022-11-14T10:00:57;30.07;;;22.00;;
17826;SDS011;9038;48.208;16.308;2022-11-14T10:03:07;28.67;;;20.47;;
17826;SDS011;9038;48.208;16.308;2022-11-14T10:05:28;29.07;;;21.53;;
17826;SDS011;9038;48.208;16.308;2022-11-14T10:07:45;27.83;;;21.23;;
17826;SDS011;9038;48.208;16.308;2022-11-14T10:09:58;30.97;;;20.70;;
17826;SDS011;9038;48.208;16.308;2022-11-14T10:12:10;28.17;;;21.10;;
17826;SDS011;9038;48.208;16.308;2022-11-14T10:14:28;27.33;;;20.87;;
17826;SDS011;9038;48.208;16.308;2022-11-14T10:16:57;29.87;;;21.53;;
17826;SDS011;9038;48.208;16.308;2022-11-14T10:19:13;28.33;;;21.10;;
17826;SDS011;9038;48.208;16.308;2022-11-14T10:21:28;26.87;;;20.60;;
17826;SDS011;9038;48.208;16.308;2022-11-14T10:23:46;29.40;;;20.17;;
17826;SDS011;9038;48.208;16.308;2022-11-14T10:26:01;25.10;;;19.43;;
17826;SDS011;9038;48.208;16.308;2022-11-14T10:28:15;26.93;;;20.60;;
17826;SDS011;9038;48.208;16.308;2022-11-14T10:30:29;27.53;;;19.90;;
17826;SDS011;9038;48.208;16.308;2022-11-14T10:32:51;30.70;;;19.60;;
17826;SDS011;9038;48.208;16.308;2022-11-14T10:35:07;25.90;;;19.13;;
17826;SDS011;9038;48.208;16.308;2022-11-14T10:37:16;28.40;;;19.33;;
17826;SDS011;9038;48.208;16.308;2022-11-14T10:39:22;27.77;;;20.00;;
17826;SDS011;9038;48.208;16.308;2022-11-14T10:41:29;25.13;;;18.50;;
17826;SDS011;9038;48.208;16.308;2022-11-14T10:43:34;27.03;;;19.10;;
17826;SDS011;9038;48.208;16.308;2022-11-14T10:45:40;23.47;;;19.13;;
17826;SDS011;9038;48.208;16.308;2022-11-14T10:47:45;25.43;;;19.70;;
17826;SDS011;9038;48.208;16.308;2022-11-14T10:49:53;27.73;;;20.23;;
17826;SDS011;9038;48.208;16.308;2022-11-14T10:51:58;26.57;;;19.33;;
17826;SDS011;9038;48.208;16.308;2022-11-14T10:54:05;23.27;;;19.13;;
17826;SDS011;9038;48.208;16.308;2022-11-14T10:56:13;24.87;;;18.87;;
17826;SDS011;9038;48.208;16.308;2022-11-14T10:58:15;25.63;;;19.27;;
17826;SDS011;9038;48.208;16.308;2022-11-14T11:00:19;22.87;;;19.20;;
17826;SDS011;9038;48.208;16.308;2022-11-14T11:02:22;24.17;;;19.10;;
17826;SDS011;9038;48.208;16.308;2022-11-14T11:04:25;26.30;;;19.67;;
17826;SDS011;9038;48.208;16.308;2022-11-14T11:06:29;24.67;;;18.23;;
17826;SDS011;9038;48.208;16.308;2022-11-14T11:08:31;27.30;;;19.50;;
17826;SDS011;9038;48.208;16.308;2022-11-14T11:10:56;24.67;;;19.27;;
17826;SDS011;9038;48.208;16.308;2022-11-14T11:13:26;24.77;;;18.87;;
17826;SDS011;9038;48.208;16.308;2022-11-14T11:15:39;27.57;;;19.73;;
17826;SDS011;9038;48.208;16.308;2022-11-14T11:17:48;25.03;;;18.93;;
17826;SDS011;9038;48.208;16.308;2022-11-14T11:19:55;22.83;;;18.40;;
17826;SDS011;9038;48.208;16.308;2022-11-14T11:24:38;22.93;;;18.83;;
17826;SDS011;9038;48.208;16.308;2022-11-14T11:26:40;31.23;;;20.00;;
17826;SDS011;9038;48.208;16.308;2022-11-14T11:28:42;28.40;;;20.80;;
17826;SDS011;9038;48.208;16.308;2022-11-14T11:31:02;26.23;;;19.30;;
17826;SDS011;9038;48.208;16.308;2022-11-14T11:33:16;28.20;;;20.00;;
17826;SDS011;9038;48.208;16.308;2022-11-14T11:35:24;27.17;;;18.87;;
17826;SDS011;9038;48.208;16.308;2022-11-14T11:37:27;25.20;;;19.37;;
17826;SDS011;9038;48.208;16.308;2022-11-14T11:39:32;24.43;;;19.00;;
17826;SDS011;9038;48.208;16.308;2022-11-14T11:41:40;24.07;;;20.47;;
17826;SDS011;9038;48.208;16.308;2022-11-14T11:43:44;25.63;;;20.03;;
17826;SDS011;9038;48.208;16.308;2022-11-14T11:45:49;23.50;;;19.60;;
17826;SDS011;9038;48.208;16.308;2022-11-14T11:47:55;21.70;;;19.10;;
17826;SDS011;9038;48.208;16.308;2022-11-14T11:50:01;40.50;;;21.60;;
17826;SDS011;9038;48.208;16.308;2022-11-14T11:52:11;26.23;;;19.73;;
17826;SDS011;9038;48.208;16.308;2022-11-14T11:54:18;30.03;;;20.77;;
17826;SDS011;9038;48.208;16.308;2022-11-14T11:56:24;25.47;;;20.27;;
17826;SDS011;9038;48.208;16.308;2022-11-14T11:58:28;24.37;;;20.60;;
17826;SDS011;9038;48.208;16.308;2022-11-14T12:00:34;25.73;;;20.37;;
17826;SDS011;9038;48.208;16.308;2022-11-14T12:02:37;29.97;;;21.10;;
17826;SDS011;9038;48.208;16.308;2022-11-14T12:04:44;27.40;;;20.33;;
17826;SDS011;9038;48.208;16.308;2022-11-14T12:06:48;25.57;;;19.83;;
17826;SDS011;9038;48.208;16.308;2022-11-14T12:09:05;25.10;;;18.83;;